This is the latest recevied weather packets stored in our database for station/object DG5MG. If no packets are shown the sender has not sent any weather packets the latest 10 day(s).
| Time | Temp. | Humidity | Pressure | Rain* | Wind** | Luminosity | Snow |
|---|---|---|---|---|---|---|---|
| 1777385106 | 20° C | 36% | 1021 hPa | 0 mm | - | 895 W/m² | - |
| 1777383905 | 20.56° C | 36% | 1021 hPa | 0 mm | - | 983 W/m² | - |
| 1777381505 | 20.56° C | 38% | 1021.3 hPa | 0 mm | - | 1136 W/m² | - |
| 1777376705 | 20° C | 39% | 1021.5 hPa | 0 mm | - | 1300 W/m² | - |
| 1777376106 | 19.44° C | 38% | 1022 hPa | 0 mm | - | 1305 W/m² | - |
| 1777374905 | 18.89° C | 40% | 1021.7 hPa | 0 mm | - | 1304 W/m² | - |
| 1777374005 | 18.33° C | 41% | 1021.7 hPa | 0 mm | - | 1293 W/m² | - |
| 1777373405 | 18.89° C | 44% | 1022 hPa | 0 mm | - | 1281 W/m² | - |
| 1777369505 | 17.22° C | 47% | 1022 hPa | 0 mm | - | 1122 W/m² | - |
| 1777367405 | 16.67° C | 50% | 1022.4 hPa | 0 mm | - | 987 W/m² | - |
| 1777365905 | 15.56° C | 52% | 1022.4 hPa | 0 mm | - | 876 W/m² | - |
| 1777365006 | 15° C | 53% | 1022 hPa | 0 mm | - | 805 W/m² | - |
| 1777364706 | 15° C | 54% | 1022 hPa | 0 mm | - | 781 W/m² | - |
| 1777363505 | 12.78° C | 56% | 1022 hPa | 0 mm | - | 682 W/m² | - |
| 1777361705 | 12.78° C | 57% | 1022 hPa | 0 mm | - | 532 W/m² | - |
| 1777361405 | 12.78° C | 57% | 1022 hPa | 0 mm | - | 507 W/m² | - |
| 1777359005 | 10.56° C | 60% | 1022 hPa | 0 mm | - | 316 W/m² | - |
| 1777356605 | 7.78° C | 73% | 1021.7 hPa | 0 mm | - | 146 W/m² | - |
| 1777351805 | 3.89° C | 90% | 1021.3 hPa | 0 mm | - | 0 W/m² | - |
| 1777349405 | 3.89° C | 90% | 1021.3 hPa | 0 mm | - | 0 W/m² | - |
| 1777346404 | 4.44° C | 87% | 1021.7 hPa | 0 mm | - | 0 W/m² | - |
| 1777346105 | 4.44° C | 85% | 1021.3 hPa | 0 mm | - | 0 W/m² | - |
| 1777345804 | 4.44° C | 87% | 1021.7 hPa | 0 mm | - | 0 W/m² | - |
| 1777343404 | 5° C | 84% | 1022 hPa | 0 mm | - | 0 W/m² | - |
| 1777339504 | 5° C | 81% | 1022 hPa | 0 mm | - | 0 W/m² | - |
* Rain latest hour (hover to see other rain measurements)
** Current wind speed in m/s (hover to see current wind gust speed)